createdAt,value
2023-04-14T00:02:11.878Z,3.38
2023-04-14T00:04:39.046Z,3.25
2023-04-14T00:07:06.427Z,3.23
2023-04-14T00:09:35.985Z,3.16
2023-04-14T00:12:02.951Z,3.10
2023-04-14T00:14:29.961Z,3.05
2023-04-14T00:16:56.966Z,2.98
2023-04-14T00:19:23.897Z,2.95
2023-04-14T00:21:53.510Z,2.95
2023-04-14T00:24:20.396Z,2.88
2023-04-14T00:26:48.328Z,2.90
2023-04-14T00:29:15.422Z,2.88
2023-04-14T00:31:42.467Z,2.88
2023-04-14T00:34:09.550Z,2.85
2023-04-14T00:36:37.110Z,2.83
2023-04-14T00:39:04.907Z,2.74
2023-04-14T00:41:35.479Z,2.72
2023-04-14T00:44:03.004Z,2.70
2023-04-14T00:46:30.338Z,2.68
2023-04-14T00:48:57.909Z,2.58
2023-04-14T00:51:25.185Z,2.51
2023-04-14T00:53:53.719Z,2.43
2023-04-14T00:56:21.369Z,2.42
2023-04-14T00:58:52.222Z,2.37
2023-04-14T01:01:19.277Z,2.35
2023-04-14T01:03:46.900Z,2.29
2023-04-14T01:06:14.068Z,2.30
2023-04-14T01:08:43.396Z,2.27
2023-04-14T01:11:20.036Z,2.22
2023-04-14T01:14:03.847Z,2.20
2023-04-14T01:16:36.167Z,2.14
2023-04-14T01:19:15.611Z,2.13
2023-04-14T01:21:46.686Z,2.06
2023-04-14T01:24:45.553Z,2.07
2023-04-14T01:27:31.445Z,2.09
2023-04-14T01:30:17.757Z,2.06
2023-04-14T01:32:46.198Z,2.00
2023-04-14T01:35:21.040Z,2.02
2023-04-14T01:37:50.000Z,1.96
2023-04-14T01:40:17.779Z,1.90
2023-04-14T01:42:47.966Z,1.91
2023-04-14T01:45:27.352Z,1.91
2023-04-14T01:47:55.509Z,1.87
2023-04-14T01:50:25.606Z,1.83
2023-04-14T01:52:54.568Z,1.82
2023-04-14T01:55:23.997Z,1.76
2023-04-14T01:57:53.453Z,1.69
2023-04-14T02:00:21.533Z,1.62
2023-04-14T02:02:52.814Z,1.55
2023-04-14T02:05:20.614Z,1.47
2023-04-14T02:07:48.805Z,1.43
2023-04-14T02:10:20.795Z,1.45
2023-04-14T02:12:49.755Z,1.42
2023-04-14T02:15:18.802Z,1.37
2023-04-14T02:17:51.833Z,1.36
2023-04-14T02:20:21.327Z,1.32
2023-04-14T02:22:48.448Z,1.27
2023-04-14T02:25:15.448Z,1.21
2023-04-14T02:27:52.364Z,1.21
2023-04-14T02:30:22.935Z,1.19
2023-04-14T02:32:54.585Z,1.17
2023-04-14T02:35:44.164Z,1.12
2023-04-14T02:38:18.769Z,1.10
2023-04-14T02:40:46.854Z,1.08
2023-04-14T02:43:20.837Z,1.04
2023-04-14T02:45:50.980Z,1.03
2023-04-14T02:48:18.943Z,1.04
2023-04-14T02:50:49.486Z,1.04
2023-04-14T02:53:22.441Z,0.96
2023-04-14T02:55:54.772Z,0.93
2023-04-14T02:58:22.319Z,0.86
2023-04-14T03:00:50.342Z,0.81
2023-04-14T03:03:18.831Z,0.85
2023-04-14T03:05:47.711Z,0.83
2023-04-14T03:08:16.863Z,0.85
2023-04-14T03:10:48.878Z,0.91
2023-04-14T03:13:18.868Z,0.93
2023-04-14T03:15:59.739Z,0.93
2023-04-14T03:18:31.328Z,0.94
2023-04-14T03:21:00.865Z,0.91
2023-04-14T03:23:29.143Z,0.91
2023-04-14T03:26:00.613Z,0.85
2023-04-14T03:28:30.553Z,0.91
2023-04-14T03:31:01.425Z,0.92
2023-04-14T03:33:36.906Z,0.89
2023-04-14T03:36:04.493Z,0.88
2023-04-14T03:38:33.553Z,0.87
2023-04-14T03:41:05.647Z,0.89
2023-04-14T03:43:33.645Z,0.83
2023-04-14T03:46:10.843Z,0.85
2023-04-14T03:48:49.892Z,0.84
2023-04-14T03:51:17.678Z,0.83
2023-04-14T03:53:49.445Z,0.83
2023-04-14T03:56:18.308Z,0.83
2023-04-14T03:58:47.954Z,0.84
2023-04-14T04:01:18.668Z,0.82
2023-04-14T04:03:46.693Z,0.87
2023-04-14T04:06:14.082Z,0.79
2023-04-14T04:08:41.776Z,0.75
2023-04-14T04:11:09.874Z,0.74
2023-04-14T04:13:40.073Z,0.77
2023-04-14T04:16:07.720Z,0.84
2023-04-14T04:18:38.677Z,0.81
2023-04-14T04:21:07.804Z,0.87
2023-04-14T04:23:37.637Z,0.92
2023-04-14T04:26:04.690Z,1.00
2023-04-14T04:28:39.110Z,1.05
2023-04-14T04:31:06.823Z,1.09
2023-04-14T04:33:34.647Z,1.13
2023-04-14T04:36:03.167Z,1.15
2023-04-14T04:38:36.198Z,1.12
2023-04-14T04:41:03.490Z,1.11
2023-04-14T04:43:34.606Z,1.08
2023-04-14T04:46:04.698Z,1.08
2023-04-14T04:48:31.791Z,1.16
2023-04-14T04:50:58.778Z,1.23
2023-04-14T04:53:26.015Z,1.18
2023-04-14T04:55:53.406Z,1.29
2023-04-14T04:58:23.805Z,1.42
2023-04-14T05:00:51.237Z,1.36
2023-04-14T05:03:51.776Z,1.42
2023-04-14T05:06:18.778Z,1.36
2023-04-14T05:09:04.979Z,1.48
2023-04-14T05:11:32.993Z,1.54
2023-04-14T05:13:59.876Z,1.56
2023-04-14T05:16:28.330Z,1.61
2023-04-14T05:18:55.535Z,1.70
2023-04-14T05:21:22.553Z,1.72
2023-04-14T05:23:50.063Z,1.66
2023-04-14T05:28:49.248Z,1.76
2023-04-14T05:31:16.585Z,1.84
2023-04-14T05:33:49.204Z,2.01
2023-04-14T05:36:16.475Z,2.22
2023-04-14T05:38:43.548Z,2.31
2023-04-14T05:41:16.639Z,2.38
2023-04-14T05:43:43.738Z,2.43
2023-04-14T05:46:11.069Z,2.36
2023-04-14T05:48:38.348Z,2.53
2023-04-14T05:51:16.514Z,2.52
2023-04-14T05:53:53.993Z,2.59
2023-04-14T05:56:21.142Z,2.73
2023-04-14T05:58:48.312Z,2.87
2023-04-14T06:01:15.683Z,3.01
2023-04-14T06:03:42.986Z,3.02
2023-04-14T06:06:10.230Z,3.13
2023-04-14T06:08:39.880Z,3.14
2023-04-14T06:11:06.897Z,3.25
2023-04-14T06:13:35.692Z,3.43
2023-04-14T06:16:03.657Z,3.55
2023-04-14T06:18:30.874Z,3.46
2023-04-14T06:20:57.894Z,3.48
2023-04-14T06:23:26.884Z,3.53
2023-04-14T06:25:55.200Z,3.66
2023-04-14T06:28:24.332Z,3.70
2023-04-14T06:30:51.503Z,3.82
2023-04-14T06:33:18.732Z,3.90
2023-04-14T06:35:45.693Z,4.05
2023-04-14T06:38:14.135Z,4.15
2023-04-14T06:40:41.299Z,4.05
2023-04-14T06:43:11.138Z,3.99
2023-04-14T06:45:38.322Z,3.92
2023-04-14T06:48:05.920Z,3.80
2023-04-14T06:50:33.029Z,3.80
2023-04-14T06:53:00.309Z,3.65
2023-04-14T06:55:27.382Z,3.79
2023-04-14T06:57:54.556Z,3.85
2023-04-14T07:00:22.043Z,3.81
2023-04-14T07:02:49.291Z,3.89
2023-04-14T07:05:17.491Z,4.12
2023-04-14T07:07:44.502Z,4.08
2023-04-14T07:10:12.739Z,4.41
2023-04-14T07:12:58.946Z,4.73
2023-04-14T07:15:26.308Z,4.83
2023-04-14T07:17:53.610Z,4.90
2023-04-14T07:20:20.756Z,5.02
2023-04-14T07:22:47.952Z,4.92
2023-04-14T07:25:15.048Z,4.98
2023-04-14T07:27:49.898Z,5.07
2023-04-14T07:30:30.285Z,5.07
2023-04-14T07:32:57.867Z,5.00
2023-04-14T07:35:25.996Z,5.17
2023-04-14T07:37:53.110Z,5.21
2023-04-14T07:40:20.499Z,5.37
2023-04-14T07:42:49.430Z,5.48
2023-04-14T07:45:19.129Z,5.65
2023-04-14T07:47:46.379Z,5.79
2023-04-14T07:50:13.445Z,5.78
2023-04-14T07:52:40.570Z,5.71
2023-04-14T07:55:07.997Z,5.80
2023-04-14T07:57:35.540Z,6.10
2023-04-14T08:00:02.699Z,6.27
2023-04-14T08:02:40.968Z,6.41
2023-04-14T08:05:09.613Z,6.55
2023-04-14T08:07:37.110Z,6.94
2023-04-14T08:10:04.317Z,6.88
2023-04-14T08:12:32.160Z,6.87
2023-04-14T08:14:59.319Z,7.05
2023-04-14T08:17:27.420Z,7.04
2023-04-14T08:19:54.444Z,7.33
2023-04-14T08:22:21.706Z,7.69
2023-04-14T08:24:52.002Z,7.97
2023-04-14T08:27:20.066Z,8.08
2023-04-14T08:29:51.445Z,8.37
2023-04-14T08:32:18.549Z,8.43
2023-04-14T08:35:37.567Z,8.57
2023-04-14T08:37:32.838Z,8.86
2023-04-14T08:40:00.756Z,8.79
2023-04-14T08:42:27.853Z,8.98
2023-04-14T08:45:17.036Z,9.16
2023-04-14T08:47:46.095Z,9.38
2023-04-14T08:50:18.894Z,9.75
2023-04-14T08:52:46.530Z,9.95
2023-04-14T08:55:14.285Z,10.11
2023-04-14T08:57:42.725Z,10.18
2023-04-14T09:00:10.770Z,10.39
2023-04-14T09:02:40.740Z,10.46
2023-04-14T09:05:09.057Z,10.40
2023-04-14T09:07:36.904Z,10.80
2023-04-14T09:10:04.749Z,11.26
2023-04-14T09:12:32.708Z,11.43
2023-04-14T09:14:59.684Z,11.52
2023-04-14T09:17:28.078Z,11.71
2023-04-14T09:20:34.707Z,11.85
2023-04-14T09:22:43.485Z,11.83
2023-04-14T09:25:10.994Z,11.45
2023-04-14T09:27:42.903Z,11.76
2023-04-14T09:30:29.220Z,12.11
2023-04-14T09:32:57.139Z,12.25
2023-04-14T09:35:43.541Z,12.42
2023-04-14T09:38:11.090Z,12.39
2023-04-14T09:40:39.305Z,12.57
2023-04-14T09:43:06.779Z,12.91
2023-04-14T09:45:44.876Z,12.78
2023-04-14T09:48:13.654Z,12.65
2023-04-14T09:51:10.095Z,13.12
2023-04-14T09:53:39.564Z,13.01
2023-04-14T09:56:13.651Z,13.00
2023-04-14T09:58:43.049Z,13.55
2023-04-14T10:01:17.581Z,13.56
2023-04-14T10:03:47.149Z,13.25
2023-04-14T10:06:24.146Z,13.66
2023-04-14T10:08:53.254Z,14.09
2023-04-14T10:11:26.163Z,14.41
2023-04-14T10:14:05.349Z,14.25
2023-04-14T10:16:34.092Z,14.39
2023-04-14T10:19:02.313Z,14.46
2023-04-14T10:21:29.870Z,14.56
2023-04-14T10:23:59.218Z,14.38
2023-04-14T10:26:26.765Z,14.42
2023-04-14T10:28:57.856Z,14.63
2023-04-14T10:31:47.989Z,14.98
2023-04-14T10:34:18.315Z,14.99
2023-04-14T10:37:14.161Z,14.81
2023-04-14T10:39:44.900Z,14.92
2023-04-14T10:42:11.927Z,15.65
2023-04-14T10:44:39.478Z,16.11
2023-04-14T10:47:09.353Z,16.81
2023-04-14T10:50:00.321Z,16.69
2023-04-14T10:52:30.250Z,16.36
2023-04-14T10:55:01.410Z,16.40
2023-04-14T10:57:29.811Z,16.15
2023-04-14T10:59:59.048Z,16.69
2023-04-14T11:02:55.440Z,17.19
2023-04-14T11:05:23.347Z,17.19
2023-04-14T11:07:56.148Z,17.22
2023-04-14T11:10:28.330Z,16.58
2023-04-14T11:13:17.742Z,16.58
2023-04-14T11:15:49.177Z,16.92
2023-04-14T11:18:21.462Z,16.91
2023-04-14T11:20:52.243Z,17.47
2023-04-14T11:23:27.167Z,17.15
2023-04-14T11:25:54.602Z,16.96
2023-04-14T11:28:50.423Z,17.23
2023-04-14T11:31:36.742Z,17.31
2023-04-14T11:34:23.372Z,16.75
2023-04-14T11:37:09.136Z,16.51
2023-04-14T11:39:36.673Z,16.55
2023-04-14T11:42:04.717Z,16.41
2023-04-14T11:44:32.020Z,16.77
2023-04-14T11:46:59.000Z,17.50
2023-04-14T11:49:40.300Z,17.46
2023-04-14T11:52:08.341Z,17.42
2023-04-14T11:54:37.271Z,17.45
2023-04-14T11:57:22.737Z,17.27
2023-04-14T12:00:08.750Z,17.38
2023-04-14T12:02:36.329Z,17.10
2023-04-14T12:05:04.052Z,17.15
2023-04-14T12:07:34.020Z,17.90
2023-04-14T12:10:07.619Z,18.80
2023-04-14T12:12:34.540Z,18.40
2023-04-14T12:15:01.965Z,18.73
2023-04-14T12:17:31.337Z,18.81
2023-04-14T12:19:58.401Z,18.53
2023-04-14T12:22:29.554Z,18.58
2023-04-14T12:24:57.276Z,19.00
2023-04-14T12:27:26.712Z,19.04
2023-04-14T12:29:53.784Z,19.15
2023-04-14T12:32:40.923Z,19.80
2023-04-14T12:35:26.824Z,20.21
2023-04-14T12:38:30.646Z,20.32
2023-04-14T12:41:25.530Z,20.85
2023-04-14T12:44:21.369Z,20.95
2023-04-14T12:47:07.362Z,20.85
2023-04-14T12:49:36.854Z,20.37
2023-04-14T12:52:05.810Z,19.46
2023-04-14T12:54:55.297Z,18.89
2023-04-14T12:57:22.622Z,19.19
2023-04-14T12:59:49.713Z,19.90
2023-04-14T13:02:36.569Z,19.84
2023-04-14T13:05:05.219Z,19.98
2023-04-14T13:07:33.180Z,20.56
2023-04-14T13:10:02.417Z,21.13
2023-04-14T13:12:31.200Z,21.27
2023-04-14T13:14:58.390Z,20.68
2023-04-14T13:17:26.172Z,20.24
2023-04-14T13:19:54.210Z,20.92
2023-04-14T13:22:21.325Z,20.94
2023-04-14T13:24:50.039Z,20.57
2023-04-14T13:27:38.701Z,20.03
2023-04-14T13:30:06.611Z,19.52
2023-04-14T13:32:34.448Z,19.52
2023-04-14T13:35:01.963Z,19.77
2023-04-14T13:37:30.127Z,20.10
2023-04-14T13:40:21.920Z,20.21
2023-04-14T13:43:09.078Z,19.49
2023-04-14T13:45:40.034Z,19.81
2023-04-14T13:48:08.175Z,20.06
2023-04-14T13:50:54.565Z,19.42
2023-04-14T13:53:40.105Z,18.56
2023-04-14T13:56:11.039Z,17.88
2023-04-14T13:58:38.586Z,17.74
2023-04-14T14:01:15.028Z,17.99
2023-04-14T14:03:42.298Z,18.17
2023-04-14T14:06:09.788Z,18.41
2023-04-14T14:08:38.086Z,19.15
2023-04-14T14:11:11.706Z,19.40
2023-04-14T14:13:40.939Z,19.22
2023-04-14T14:19:00.827Z,18.67
2023-04-14T14:21:46.823Z,18.42
2023-04-14T14:24:32.633Z,18.07
2023-04-14T14:26:59.747Z,18.14
2023-04-14T14:29:27.373Z,18.39
2023-04-14T14:31:54.464Z,18.04
2023-04-14T14:34:21.483Z,17.89
2023-04-14T14:36:48.574Z,17.33
2023-04-14T14:39:37.150Z,16.95
2023-04-14T14:42:04.180Z,16.35
2023-04-14T14:44:34.422Z,15.71
2023-04-14T14:47:02.072Z,14.55
2023-04-14T14:49:29.229Z,13.64
2023-04-14T14:51:56.385Z,13.21
2023-04-14T14:54:26.149Z,12.80
2023-04-14T14:56:53.074Z,12.09
2023-04-14T14:59:24.430Z,11.57
2023-04-14T15:01:53.564Z,11.15
2023-04-14T15:04:39.775Z,10.92
2023-04-14T15:07:07.784Z,10.62
2023-04-14T15:09:34.681Z,10.60
2023-04-14T15:12:04.761Z,10.46
2023-04-14T15:14:32.701Z,10.51
2023-04-14T15:16:59.722Z,10.37
2023-04-14T15:19:31.940Z,10.34
2023-04-14T15:22:21.790Z,10.38
2023-04-14T15:24:48.860Z,10.12
2023-04-14T15:27:18.602Z,9.45
2023-04-14T15:29:45.964Z,8.79
2023-04-14T15:32:12.950Z,8.62
2023-04-14T15:34:40.052Z,8.36
2023-04-14T15:37:09.657Z,8.24
2023-04-14T15:39:55.344Z,7.98
2023-04-14T15:42:41.283Z,7.70
2023-04-14T15:45:08.939Z,7.58
2023-04-14T15:47:35.882Z,7.36
2023-04-14T15:50:09.888Z,7.30
2023-04-14T15:52:41.007Z,7.33
2023-04-14T15:55:09.569Z,7.22
2023-04-14T15:57:55.208Z,7.07
2023-04-14T16:00:40.642Z,7.04
2023-04-14T16:03:07.891Z,6.97
2023-04-14T16:05:53.311Z,6.87
2023-04-14T16:08:20.384Z,6.77
2023-04-14T16:10:57.448Z,6.76
2023-04-14T16:13:24.541Z,6.70
2023-04-14T16:15:51.617Z,6.53
2023-04-14T16:18:18.746Z,6.29
2023-04-14T16:20:46.741Z,6.29
2023-04-14T16:23:32.122Z,6.17
2023-04-14T16:26:00.120Z,6.14
2023-04-14T16:28:46.259Z,6.29
2023-04-14T16:31:14.483Z,6.14
2023-04-14T16:34:00.418Z,6.03
2023-04-14T16:36:28.000Z,5.90
2023-04-14T16:38:58.130Z,5.80
2023-04-14T16:41:25.229Z,5.70
2023-04-14T16:43:52.467Z,5.72
2023-04-14T16:46:19.421Z,5.52
2023-04-14T16:49:05.611Z,5.41
2023-04-14T16:51:33.137Z,5.45
2023-04-14T16:54:00.719Z,5.28
2023-04-14T16:56:29.187Z,5.33
2023-04-14T16:59:14.816Z,5.22
2023-04-14T17:02:02.046Z,5.22
2023-04-14T17:04:29.596Z,5.17
2023-04-14T17:06:56.881Z,5.10
2023-04-14T17:09:24.130Z,5.02
2023-04-14T17:11:52.149Z,5.03
2023-04-14T17:14:19.852Z,4.96
2023-04-14T17:16:47.095Z,4.92
2023-04-14T17:19:14.662Z,4.96
2023-04-14T17:21:41.801Z,4.77
2023-04-14T17:24:27.729Z,4.78
2023-04-14T17:26:55.842Z,4.76
2023-04-14T17:29:25.815Z,4.67
2023-04-14T17:31:53.283Z,4.70
2023-04-14T17:34:20.759Z,4.60
2023-04-14T17:36:52.031Z,4.53
2023-04-14T17:39:22.449Z,4.48
2023-04-14T17:41:49.531Z,4.51
2023-04-14T17:44:16.769Z,4.35
2023-04-14T17:46:46.820Z,4.36
2023-04-14T17:49:35.373Z,4.33
2023-04-14T17:52:17.198Z,4.22
2023-04-14T17:54:45.893Z,4.21
2023-04-14T17:57:13.974Z,4.23
2023-04-14T17:59:41.839Z,4.14
2023-04-14T18:02:59.335Z,4.17
2023-04-14T18:05:26.480Z,4.01
2023-04-14T18:08:34.414Z,4.02
2023-04-14T18:11:01.640Z,3.95
2023-04-14T18:13:54.401Z,3.87
2023-04-14T18:16:30.948Z,3.75
2023-04-14T18:18:59.910Z,3.68
2023-04-14T18:21:46.947Z,3.72
2023-04-14T18:28:02.817Z,3.65
2023-04-14T18:29:52.510Z,3.60
2023-04-14T18:32:19.783Z,3.56
2023-04-14T18:34:49.319Z,3.54
2023-04-14T18:37:16.173Z,3.50
2023-04-14T18:39:50.898Z,3.44
2023-04-14T18:42:18.287Z,3.37
2023-04-14T18:44:45.864Z,3.38
2023-04-14T18:47:31.626Z,3.28
2023-04-14T18:50:20.448Z,3.27
2023-04-14T18:53:05.964Z,3.20
2023-04-14T18:55:41.778Z,3.22
2023-04-14T18:58:14.331Z,3.23
2023-04-14T19:00:43.181Z,3.09
2023-04-14T19:03:11.341Z,3.06
2023-04-14T19:05:38.435Z,3.10
2023-04-14T19:08:06.303Z,3.01
2023-04-14T19:10:54.896Z,2.87
2023-04-14T19:13:22.319Z,2.92
2023-04-14T19:15:52.763Z,2.94
2023-04-14T19:18:20.455Z,2.88
2023-04-14T19:20:48.645Z,2.70
2023-04-14T19:23:15.649Z,2.72
2023-04-14T19:25:42.837Z,2.67
2023-04-14T19:28:16.711Z,2.68
2023-04-14T19:30:45.908Z,2.66
2023-04-14T19:33:16.056Z,2.60
2023-04-14T19:35:46.045Z,2.49
2023-04-14T19:38:13.144Z,2.52
2023-04-14T19:40:51.119Z,2.49
2023-04-14T19:43:23.639Z,2.49
2023-04-14T19:45:51.601Z,2.45
2023-04-14T19:48:23.355Z,2.37
2023-04-14T19:50:52.206Z,2.33
2023-04-14T19:53:20.180Z,2.27
2023-04-14T19:55:51.371Z,2.22
2023-04-14T19:58:21.833Z,2.19
2023-04-14T20:00:51.699Z,2.22
2023-04-14T20:03:19.651Z,2.11
2023-04-14T20:05:55.005Z,2.13
2023-04-14T20:08:22.889Z,2.08
2023-04-14T20:10:54.337Z,2.02
2023-04-14T20:13:22.768Z,1.99
2023-04-14T20:15:50.828Z,1.94
2023-04-14T20:18:18.083Z,1.92
2023-04-14T20:20:49.201Z,1.92
2023-04-14T20:23:16.145Z,1.88
2023-04-14T20:25:44.085Z,1.87
2023-04-14T20:28:11.190Z,1.86
2023-04-14T20:30:43.180Z,1.85
2023-04-14T20:33:10.635Z,1.79
2023-04-14T20:35:39.786Z,1.77
2023-04-14T20:38:07.664Z,1.67
2023-04-14T20:40:37.825Z,1.65
2023-04-14T20:43:06.107Z,1.64
2023-04-14T20:45:34.108Z,1.60
2023-04-14T20:48:04.053Z,1.57
2023-04-14T20:50:31.063Z,1.52
2023-04-14T20:52:58.601Z,1.56
2023-04-14T20:55:26.244Z,1.55
2023-04-14T20:57:56.455Z,1.52
2023-04-14T21:00:29.204Z,1.46
2023-04-14T21:02:56.418Z,1.48
2023-04-14T21:05:25.705Z,1.42
2023-04-14T21:07:52.772Z,1.33
2023-04-14T21:10:19.689Z,1.29
2023-04-14T21:15:06.468Z,1.25
2023-04-14T21:15:55.615Z,1.15
2023-04-14T21:18:23.358Z,1.18
2023-04-14T21:20:51.407Z,1.19
2023-04-14T21:23:20.338Z,1.19
2023-04-14T21:25:48.147Z,1.12
2023-04-14T21:28:15.541Z,1.14
2023-04-14T21:30:42.814Z,1.13
2023-04-14T21:33:09.976Z,1.06
2023-04-14T21:35:37.836Z,1.02
2023-04-14T21:38:04.780Z,1.00
2023-04-14T21:40:31.650Z,0.98
2023-04-14T21:42:58.545Z,0.95
2023-04-14T21:45:26.734Z,0.95
2023-04-14T21:47:53.817Z,0.90
2023-04-14T21:50:20.939Z,0.88
2023-04-14T21:52:47.828Z,0.88
2023-04-14T21:55:14.906Z,0.80
2023-04-14T21:57:44.553Z,0.74
2023-04-14T22:00:17.895Z,0.70
2023-04-14T22:02:45.785Z,0.60
2023-04-14T22:05:13.930Z,0.57
2023-04-14T22:07:41.417Z,0.53
2023-04-14T22:10:08.800Z,0.55
2023-04-14T22:12:39.960Z,0.53
2023-04-14T22:15:10.806Z,0.51
2023-04-14T22:17:38.971Z,0.50
2023-04-14T22:20:06.634Z,0.42
2023-04-14T22:22:36.366Z,0.36
2023-04-14T22:25:04.249Z,0.33
2023-04-14T22:27:33.999Z,0.29
2023-04-14T22:30:04.038Z,0.30
2023-04-14T22:32:35.076Z,0.28
2023-04-14T22:35:02.089Z,0.29
2023-04-14T22:37:30.230Z,0.26
2023-04-14T22:39:57.175Z,0.21
2023-04-14T22:42:24.188Z,0.14
2023-04-14T22:44:53.069Z,0.05
2023-04-14T22:47:20.569Z,-0.01
2023-04-14T22:49:47.532Z,0.00
2023-04-14T22:52:14.642Z,0.03
2023-04-14T22:54:41.763Z,0.01
2023-04-14T22:57:10.443Z,-0.08
2023-04-14T22:59:37.844Z,-0.10
2023-04-14T23:02:05.157Z,-0.12
2023-04-14T23:04:32.702Z,-0.15
2023-04-14T23:06:59.733Z,-0.24
2023-04-14T23:09:32.460Z,-0.33
2023-04-14T23:12:03.174Z,-0.34
2023-04-14T23:14:32.546Z,-0.33
2023-04-14T23:17:00.125Z,-0.33
2023-04-14T23:19:27.539Z,-0.37
2023-04-14T23:21:54.430Z,-0.41
2023-04-14T23:24:22.536Z,-0.47
2023-04-14T23:26:49.564Z,-0.43
2023-04-14T23:29:20.166Z,-0.47
2023-04-14T23:31:47.223Z,-0.49
2023-04-14T23:34:14.302Z,-0.52
2023-04-14T23:36:41.814Z,-0.55
2023-04-14T23:39:08.713Z,-0.55
2023-04-14T23:41:36.744Z,-0.59
2023-04-14T23:44:03.787Z,-0.67
2023-04-14T23:46:30.731Z,-0.70
2023-04-14T23:49:02.913Z,-0.75
2023-04-14T23:51:45.187Z,-0.80
2023-04-14T23:54:12.217Z,-0.83
2023-04-14T23:56:39.596Z,-0.81
2023-04-14T23:59:06.614Z,-0.82
